Time;durP1;ratioP1;P1;durP2;ratioP2;P2;SDS_P1;SDS_P2;PMS_P1;PMS_P2;Temp;Humidity;BMP_temperature;BMP_pressure;BME280_temperature;BME280_humidity;BME280_pressure;Samples;Min_cycle;Max_cycle;Signal;HPM_P1;HPM_P2
2022/07/15 00:02:10;;;;;;;;;;;;;;;19.78;48.95;101149.78;4958267;28;8174;-83
2022/07/15 00:04:37;;;;;;;;;;;;;;;19.74;49.76;101154.06;4955521;28;6890;-83
2022/07/15 00:07:04;;;;;;;;;;;;;;;19.69;49.85;101151.34;4945059;28;6963;-83
2022/07/15 00:12:14;;;;;;;;;;;;;;;19.69;49.86;101155.66;4978390;28;6800;-83
2022/07/15 00:14:40;;;;;;;;;;;;;;;19.73;49.62;101152.28;4969572;28;7303;-83
2022/07/15 00:17:07;;;;;;;;;;;;;;;19.78;49.54;101152.41;4943068;28;7178;-83
2022/07/15 00:19:34;;;;;;;;;;;;;;;19.82;49.52;101146.41;4981490;28;6971;-83
2022/07/15 00:22:00;;;;;;;;;;;;;;;19.88;49.58;101145.66;4944687;28;7005;-83
2022/07/15 00:24:29;;;;;;;;;;;;;;;19.90;49.35;101147.44;4952695;28;8709;-83
2022/07/15 00:26:56;;;;;;;;;;;;;;;19.93;49.04;101141.44;4951688;28;8626;-82
2022/07/15 00:29:22;;;;;;;;;;;;;;;19.92;49.79;101145.75;4963778;28;8646;-83
2022/07/15 00:31:48;;;;;;;;;;;;;;;19.94;49.50;101151.03;4948858;28;8696;-83
2022/07/15 00:34:14;;;;;;;;;;;;;;;19.95;49.51;101152.78;4981504;28;6938;-83
2022/07/15 00:36:39;;;;;;;;;;;;;;;19.94;49.12;101144.13;4981291;28;7174;-83
2022/07/15 00:39:06;;;;;;;;;;;;;;;19.96;49.47;101141.53;4954950;28;7007;-83
2022/07/15 00:41:43;;;;;;;;;;;;;;;19.95;49.74;101142.38;4933673;28;7017;-83
2022/07/15 00:44:10;;;;;;;;;;;;;;;19.95;49.38;101132.88;4940588;28;7004;-83
2022/07/15 00:46:36;;;;;;;;;;;;;;;19.97;49.27;101143.28;4955648;28;8068;-83
2022/07/15 00:49:06;;;;;;;;;;;;;;;19.94;49.25;101141.53;4963164;28;7142;-83
2022/07/15 00:51:46;;;;;;;;;;;;;;;19.95;49.52;101142.38;4978783;28;8440;-83
2022/07/15 00:54:15;;;;;;;;;;;;;;;19.96;49.83;101138.94;4938427;28;7005;-83
2022/07/15 00:56:51;;;;;;;;;;;;;;;20.00;49.74;101139.88;4931241;28;7143;-83
2022/07/15 00:59:19;;;;;;;;;;;;;;;20.01;49.65;101139.03;4947201;28;7017;-83
2022/07/15 01:01:46;;;;;;;;;;;;;;;20.03;49.93;101140.81;4932604;28;7194;-83
2022/07/15 01:04:12;;;;;;;;;;;;;;;20.06;49.42;101140.88;4972401;28;7188;-83
2022/07/15 01:06:39;;;;;;;;;;;;;;;20.11;49.61;101149.66;4961628;28;7204;-83
2022/07/15 01:09:05;;;;;;;;;;;;;;;20.16;49.73;101146.28;4964996;28;8395;-83
2022/07/15 01:11:31;;;;;;;;;;;;;;;20.19;49.34;101141.16;4933916;28;6983;-83
2022/07/15 01:13:59;;;;;;;;;;;;;;;20.22;49.60;101144.66;4966890;28;7417;-83
2022/07/15 01:16:26;;;;;;;;;;;;;;;20.26;49.58;101148.22;4976119;28;6961;-83
2022/07/15 01:18:53;;;;;;;;;;;;;;;20.30;49.05;101143.94;4949680;28;8124;-83
2022/07/15 01:21:19;;;;;;;;;;;;;;;20.30;49.28;101139.63;4952526;28;7328;-83
2022/07/15 01:23:45;;;;;;;;;;;;;;;20.32;48.71;101153.53;4976319;28;6991;-83
2022/07/15 01:26:13;;;;;;;;;;;;;;;20.30;48.92;101139.63;4964843;28;6976;-83
2022/07/15 01:28:40;;;;;;;;;;;;;;;20.27;48.84;101142.16;4966750;28;7049;-83
2022/07/15 01:31:06;;;;;;;;;;;;;;;20.23;48.85;101141.25;4976189;28;7063;-83
2022/07/15 01:33:33;;;;;;;;;;;;;;;20.22;48.85;101149.00;4980486;28;7101;-83
2022/07/15 01:36:00;;;;;;;;;;;;;;;20.19;48.92;101148.97;4979709;28;7043;-83
2022/07/15 01:38:28;;;;;;;;;;;;;;;20.17;48.76;101145.41;4939229;28;8464;-83
2022/07/15 01:40:54;;;;;;;;;;;;;;;20.13;49.11;101149.69;4947677;28;6820;-83
2022/07/15 01:43:22;;;;;;;;;;;;;;;20.11;49.07;101151.38;4978031;28;6796;-83
2022/07/15 01:45:48;;;;;;;;;;;;;;;20.08;49.10;101149.59;4936429;28;7051;-83
2022/07/15 01:51:00;;;;;;;;;;;;;;;20.03;49.07;101146.03;4949637;28;6812;-83
2022/07/15 01:53:28;;;;;;;;;;;;;;;20.03;49.50;101150.34;4969889;28;8405;-83
2022/07/15 01:55:54;;;;;;;;;;;;;;;20.00;49.15;101151.19;4950221;28;7189;-83
2022/07/15 01:58:20;;;;;;;;;;;;;;;19.93;49.64;101150.16;4977838;28;7199;-83
2022/07/15 02:00:46;;;;;;;;;;;;;;;19.92;49.59;101160.50;4974999;28;7303;-83
2022/07/15 02:03:13;;;;;;;;;;;;;;;19.89;50.09;101148.31;4961156;28;8485;-83
2022/07/15 02:05:39;;;;;;;;;;;;;;;19.84;50.01;101150.81;4947577;28;7195;-83
2022/07/15 02:08:05;;;;;;;;;;;;;;;19.86;49.83;101153.44;4963790;28;8540;-82
2022/07/15 02:10:40;;;;;;;;;;;;;;;19.83;49.72;101164.66;4957774;28;7178;-83
2022/07/15 02:13:12;;;;;;;;;;;;;;;19.83;50.05;101158.56;4947538;28;7043;-83
2022/07/15 02:15:41;;;;;;;;;;;;;;;19.82;49.76;101159.41;4947386;28;6975;-83
2022/07/15 02:18:10;;;;;;;;;;;;;;;19.82;50.08;101160.31;4982266;28;7002;-83
2022/07/15 02:20:36;;;;;;;;;;;;;;;19.84;49.95;101150.81;4949825;28;6858;-83
2022/07/15 02:23:02;;;;;;;;;;;;;;;19.84;50.13;101161.22;4962502;28;7777;-83
2022/07/15 02:25:31;;;;;;;;;;;;;;;19.86;49.74;101163.84;4954429;28;7144;-83
2022/07/15 02:28:01;;;;;;;;;;;;;;;19.85;49.80;101157.75;4980665;28;8426;-83
2022/07/15 02:30:31;;;;;;;;;;;;;;;19.84;49.60;101165.50;4944599;28;6808;-83
2022/07/15 02:32:57;;;;;;;;;;;;;;;19.85;50.01;101165.56;4964157;28;7337;-83
2022/07/15 02:35:23;;;;;;;;;;;;;;;19.81;49.44;101161.16;4972855;28;7238;-83
2022/07/15 02:37:50;;;;;;;;;;;;;;;19.82;49.66;101165.50;4940292;28;6977;-83
2022/07/15 02:40:16;;;;;;;;;;;;;;;19.83;49.24;101169.84;4936892;28;8314;-83
2022/07/15 02:42:55;;;;;;;;;;;;;;;19.84;49.16;101171.63;4967182;28;7057;-82
2022/07/15 02:45:25;;;;;;;;;;;;;;;19.81;49.45;101166.34;4951649;28;7743;-83
2022/07/15 02:47:51;;;;;;;;;;;;;;;19.81;49.46;101170.66;4968904;28;6954;-83
2022/07/15 02:50:19;;;;;;;;;;;;;;;19.78;49.64;101168.88;4983688;28;8439;-83
2022/07/15 02:52:45;;;;;;;;;;;;;;;19.77;49.40;101179.25;4939564;28;8182;-83
2022/07/15 02:55:13;;;;;;;;;;;;;;;19.74;49.24;101173.97;4964165;28;8525;-83
2022/07/15 02:57:39;;;;;;;;;;;;;;;19.70;48.89;101173.91;4973552;28;8363;-82
2022/07/15 03:00:11;;;;;;;;;;;;;;;19.66;48.95;101186.78;4972940;28;7234;-81
2022/07/15 03:02:37;;;;;;;;;;;;;;;19.59;48.66;101187.50;4968786;28;6916;-81
2022/07/15 03:05:04;;;;;;;;;;;;;;;19.52;49.02;101192.56;4942609;28;8400;-81
2022/07/15 03:07:30;;;;;;;;;;;;;;;19.41;48.80;101194.00;4986682;28;6982;-81
2022/07/15 03:09:57;;;;;;;;;;;;;;;19.31;49.21;101194.63;4956016;28;7221;-81
2022/07/15 03:12:23;;;;;;;;;;;;;;;19.23;49.13;101197.94;4967735;28;9271;-82
2022/07/15 03:14:49;;;;;;;;;;;;;;;19.11;49.29;101195.91;4939445;28;6979;-81
2022/07/15 03:17:15;;;;;;;;;;;;;;;19.01;49.52;101196.50;4951188;28;7189;-82
2022/07/15 03:19:42;;;;;;;;;;;;;;;18.91;49.39;101200.53;4965887;28;7193;-82
2022/07/15 03:22:08;;;;;;;;;;;;;;;18.81;50.06;101198.53;4971395;28;7036;-82
2022/07/15 03:24:33;;;;;;;;;;;;;;;18.72;50.46;101202.63;4955371;28;7072;-82
2022/07/15 03:27:00;;;;;;;;;;;;;;;18.66;50.89;101206.78;4984065;28;6930;-81
2022/07/15 03:29:26;;;;;;;;;;;;;;;18.59;50.45;101210.94;4954316;28;6784;-81
2022/07/15 03:31:53;;;;;;;;;;;;;;;18.55;51.26;101216.91;4937879;28;7200;-82
2022/07/15 03:34:19;;;;;;;;;;;;;;;18.49;51.10;101221.91;4980662;28;7191;-82
2022/07/15 03:36:45;;;;;;;;;;;;;;;18.43;51.80;101217.41;4979288;28;7309;-82
2022/07/15 03:39:10;;;;;;;;;;;;;;;18.43;51.42;101222.59;4969525;28;6915;-82
2022/07/15 03:41:36;;;;;;;;;;;;;;;18.42;51.37;101216.53;4967196;28;8448;-78
2022/07/15 03:44:03;;;;;;;;;;;;;;;18.40;51.38;101220.78;4947269;28;6828;-78
2022/07/15 03:46:33;;;;;;;;;;;;;;;18.39;51.41;101221.63;4943448;28;7187;-79
2022/07/15 03:48:58;;;;;;;;;;;;;;;18.37;51.64;101236.28;4961571;28;6856;-78
2022/07/15 03:51:24;;;;;;;;;;;;;;;18.38;51.60;101237.16;4953566;28;7903;-79
2022/07/15 03:53:51;;;;;;;;;;;;;;;18.36;52.36;101237.13;4943969;28;7142;-78
2022/07/15 03:56:16;;;;;;;;;;;;;;;18.35;52.13;101240.56;4950740;28;7632;-78
2022/07/15 03:58:44;;;;;;;;;;;;;;;18.35;52.25;101240.56;4951568;28;7097;-78
2022/07/15 04:01:10;;;;;;;;;;;;;;;18.32;51.98;101240.44;4955593;28;6900;-78
2022/07/15 04:03:36;;;;;;;;;;;;;;;18.30;52.25;101231.75;4951645;28;9777;-78
2022/07/15 04:06:02;;;;;;;;;;;;;;;18.29;52.13;101240.38;4962951;28;6832;-80
2022/07/15 04:08:28;;;;;;;;;;;;;;;18.27;52.05;101239.44;4925369;28;7301;-79
2022/07/15 04:10:56;;;;;;;;;;;;;;;18.27;52.57;101242.03;4961727;28;7231;-79
2022/07/15 04:13:22;;;;;;;;;;;;;;;18.26;52.54;101238.56;4951943;28;10329;-78
2022/07/15 04:15:48;;;;;;;;;;;;;;;18.27;52.83;101235.13;4962224;28;8139;-78
2022/07/15 04:18:14;;;;;;;;;;;;;;;18.29;53.31;101245.56;4963210;28;6955;-78
2022/07/15 04:20:39;;;;;;;;;;;;;;;18.32;52.78;101248.22;4945925;28;6972;-78
2022/07/15 04:23:05;;;;;;;;;;;;;;;18.35;52.96;101250.94;4949234;28;7201;-78
2022/07/15 04:25:31;;;;;;;;;;;;;;;18.38;53.30;101251.03;4978756;28;7031;-78
2022/07/15 04:27:56;;;;;;;;;;;;;;;18.43;52.96;101249.41;4965566;28;6962;-79
2022/07/15 04:30:22;;;;;;;;;;;;;;;18.50;53.31;101255.69;4951760;28;7231;-79
2022/07/15 04:32:48;;;;;;;;;;;;;;;18.54;53.26;101257.53;4980038;28;6780;-78
2022/07/15 04:35:14;;;;;;;;;;;;;;;18.57;53.49;101257.59;4978013;28;6780;-78
2022/07/15 04:37:40;;;;;;;;;;;;;;;18.60;52.86;101260.31;4950162;28;6994;-78
2022/07/15 04:40:07;;;;;;;;;;;;;;;18.64;52.51;101258.69;4953617;28;7753;-79
2022/07/15 04:42:33;;;;;;;;;;;;;;;18.66;53.03;101257.00;4945541;28;7072;-79
2022/07/15 04:44:59;;;;;;;;;;;;;;;18.66;52.97;101262.19;4978286;28;7224;-79
2022/07/15 04:47:24;;;;;;;;;;;;;;;18.68;52.53;101263.13;4962425;28;6772;-78
2022/07/15 04:52:35;;;;;;;;;;;;;;;18.74;52.87;101271.09;4962265;28;6959;-78
2022/07/15 04:55:02;;;;;;;;;;;;;;;18.76;52.75;101265.91;4961892;28;7007;-78
2022/07/15 04:57:27;;;;;;;;;;;;;;;18.78;51.91;101271.16;4951397;28;6792;-79
2022/07/15 04:59:53;;;;;;;;;;;;;;;18.79;52.74;101265.13;4962613;28;7040;-79
2022/07/15 05:02:19;;;;;;;;;;;;;;;18.80;52.39;101262.59;4962983;28;7118;-79
2022/07/15 05:04:46;;;;;;;;;;;;;;;18.83;52.19;101262.66;4935228;28;6971;-79
2022/07/15 05:07:12;;;;;;;;;;;;;;;18.87;52.32;101253.25;4976151;28;6792;-79
2022/07/15 05:09:38;;;;;;;;;;;;;;;18.91;52.46;101262.88;4979843;28;6788;-79
2022/07/15 05:12:05;;;;;;;;;;;;;;;18.95;52.48;101259.53;4978628;28;6776;-79
2022/07/15 05:14:31;;;;;;;;;;;;;;;19.00;52.30;101263.16;4950042;28;8872;-78
2022/07/15 05:16:56;;;;;;;;;;;;;;;19.09;52.08;101267.72;4971474;28;9109;-78
2022/07/15 05:19:22;;;;;;;;;;;;;;;19.19;52.32;101262.78;4970769;28;6987;-79
2022/07/15 05:21:48;;;;;;;;;;;;;;;19.31;52.36;101268.28;4981150;28;6784;-78
2022/07/15 05:24:13;;;;;;;;;;;;;;;19.41;51.79;101266.78;4954774;28;7147;-78
2022/07/15 05:26:39;;;;;;;;;;;;;;;19.52;51.80;101265.34;4936056;28;6955;-79
2022/07/15 05:29:04;;;;;;;;;;;;;;;19.63;51.66;101262.16;4952590;28;6984;-78
2022/07/15 05:31:30;;;;;;;;;;;;;;;19.74;51.73;101267.59;4950326;28;7009;-79
2022/07/15 05:33:56;;;;;;;;;;;;;;;19.85;51.75;101272.22;4953076;28;6768;-79
2022/07/15 05:36:21;;;;;;;;;;;;;;;19.93;51.63;101269.81;4977534;28;6776;-79
2022/07/15 05:38:47;;;;;;;;;;;;;;;19.98;50.94;101262.09;4976255;28;7161;-79
2022/07/15 05:41:13;;;;;;;;;;;;;;;20.03;51.05;101260.50;4925697;28;8555;-79
2022/07/15 05:43:38;;;;;;;;;;;;;;;20.10;51.14;101265.00;4961726;28;6768;-80
2022/07/15 05:46:05;;;;;;;;;;;;;;;20.18;51.10;101262.56;4951273;28;6969;-79
2022/07/15 05:48:31;;;;;;;;;;;;;;;20.33;51.50;101271.53;4937832;28;8433;-78
2022/07/15 05:50:57;;;;;;;;;;;;;;;20.52;51.01;101270.22;4952331;28;8491;-79
2022/07/15 05:53:23;;;;;;;;;;;;;;;20.73;51.32;101268.91;4956543;28;6934;-79
2022/07/15 05:55:48;;;;;;;;;;;;;;;20.97;50.87;101272.88;4942253;28;6979;-82
2022/07/15 05:58:14;;;;;;;;;;;;;;;21.17;50.43;101271.50;4967459;28;6862;-78
2022/07/15 06:00:40;;;;;;;;;;;;;;;21.31;49.96;101258.72;4968260;28;6975;-79
2022/07/15 06:03:06;;;;;;;;;;;;;;;21.39;49.02;101268.38;4975410;28;6776;-78
2022/07/15 06:05:32;;;;;;;;;;;;;;;21.39;48.79;101261.44;4928734;28;6968;-78
2022/07/15 06:07:59;;;;;;;;;;;;;;;21.39;48.50;101261.44;4975064;28;6775;-78
2022/07/15 06:10:25;;;;;;;;;;;;;;;21.36;47.89;101266.63;4967182;28;6989;-78
2022/07/15 06:12:52;;;;;;;;;;;;;;;21.29;47.79;101262.16;4979629;28;6788;-78
2022/07/15 06:15:19;;;;;;;;;;;;;;;21.20;47.55;101266.34;4980134;28;8364;-78
2022/07/15 06:17:45;;;;;;;;;;;;;;;21.12;47.66;101265.31;4963710;28;6986;-78
2022/07/15 06:20:11;;;;;;;;;;;;;;;21.07;47.45;101265.22;4979431;28;7195;-78
2022/07/15 06:22:38;;;;;;;;;;;;;;;21.04;47.79;101267.78;4959071;28;7833;-77
2022/07/15 06:25:04;;;;;;;;;;;;;;;21.00;47.28;101270.31;4949935;28;7214;-78
2022/07/15 06:27:31;;;;;;;;;;;;;;;20.94;47.53;101277.16;4946159;28;6999;-78
2022/07/15 06:29:58;;;;;;;;;;;;;;;20.90;48.05;101270.13;4934631;28;6978;-78
2022/07/15 06:32:24;;;;;;;;;;;;;;;20.91;47.79;101277.09;4952530;28;6983;-77
2022/07/15 06:34:49;;;;;;;;;;;;;;;20.88;47.73;101274.44;4952194;28;6991;-78
2022/07/15 06:37:15;;;;;;;;;;;;;;;20.86;47.65;101268.34;4976218;28;6768;-78
2022/07/15 06:39:41;;;;;;;;;;;;;;;20.85;47.68;101269.16;4963010;28;7129;-78
2022/07/15 06:42:06;;;;;;;;;;;;;;;20.84;47.71;101269.16;4980288;28;7223;-77
2022/07/15 06:44:32;;;;;;;;;;;;;;;20.84;48.31;101272.63;4963509;28;7040;-77
2022/07/15 06:46:58;;;;;;;;;;;;;;;20.87;48.30;101267.50;4963716;28;8084;-77
2022/07/15 06:49:23;;;;;;;;;;;;;;;20.90;47.74;101271.84;4948512;28;6856;-78
2022/07/15 06:51:49;;;;;;;;;;;;;;;20.91;47.45;101278.84;4966870;28;7438;-77
2022/07/15 06:54:14;;;;;;;;;;;;;;;20.90;47.56;101277.06;4934628;28;7170;-78
2022/07/15 06:56:40;;;;;;;;;;;;;;;20.92;47.54;101281.47;4966684;28;6950;-78
2022/07/15 06:59:06;;;;;;;;;;;;;;;20.97;47.30;101275.47;4977141;28;6962;-77
2022/07/15 07:01:32;;;;;;;;;;;;;;;20.99;47.29;101281.59;4940691;28;7940;-77
2022/07/15 07:03:57;;;;;;;;;;;;;;;21.02;47.45;101274.72;4962570;28;6780;-77
2022/07/15 07:06:26;;;;;;;;;;;;;;;21.08;47.31;101277.41;4956063;28;6980;-77
2022/07/15 07:08:52;;;;;;;;;;;;;;;21.22;47.45;101282.88;4949730;28;7213;-77
2022/07/15 07:11:19;;;;;;;;;;;;;;;21.50;47.32;101274.69;4930285;28;7254;-77
2022/07/15 07:13:45;;;;;;;;;;;;;;;21.88;46.88;101270.94;4928042;28;7238;-77
2022/07/15 07:16:11;;;;;;;;;;;;;;;22.34;47.22;101276.81;4925506;28;7230;-77
2022/07/15 07:18:37;;;;;;;;;;;;;;;22.83;46.53;101266.94;4936159;28;6970;-77
2022/07/15 07:21:04;;;;;;;;;;;;;;;23.29;45.73;101271.81;4941892;28;7011;-77
2022/07/15 07:23:30;;;;;;;;;;;;;;;23.56;44.04;101276.41;4957502;28;6852;-77
2022/07/15 07:25:57;;;;;;;;;;;;;;;23.65;42.74;101270.34;4928265;28;6940;-77
2022/07/15 07:28:23;;;;;;;;;;;;;;;23.62;42.19;101272.94;4955958;28;6790;-77
2022/07/15 07:30:50;;;;;;;;;;;;;;;23.66;42.46;101272.13;4920264;28;7515;-77
2022/07/15 07:33:16;;;;;;;;;;;;;;;23.94;42.16;101268.81;4942954;28;6793;-77
2022/07/15 07:35:43;;;;;;;;;;;;;;;24.29;41.11;101264.66;4923117;28;7046;-77
2022/07/15 07:38:10;;;;;;;;;;;;;;;24.54;40.51;101261.28;4933326;28;6856;-77
2022/07/15 07:40:35;;;;;;;;;;;;;;;24.81;39.57;101264.00;4919813;28;6994;-77
2022/07/15 07:43:01;;;;;;;;;;;;;;;25.15;39.71;101263.19;4930409;28;6839;-77
2022/07/15 07:45:28;;;;;;;;;;;;;;;25.32;39.00;101263.19;4939506;28;7348;-77
2022/07/15 07:47:56;;;;;;;;;;;;;;;25.10;38.47;101258.81;4909470;28;7250;-77
2022/07/15 07:50:22;;;;;;;;;;;;;;;24.74;38.38;101265.72;4954466;28;7102;-77
2022/07/15 07:52:48;;;;;;;;;;;;;;;24.39;38.63;101266.47;4928441;28;7263;-77
2022/07/15 07:55:15;;;;;;;;;;;;;;;24.14;38.81;101271.56;4927646;28;6830;-77
2022/07/15 07:57:49;;;;;;;;;;;;;;;23.99;39.19;101269.69;4924332;28;7028;-77
2022/07/15 08:00:17;;;;;;;;;;;;;;;23.87;38.76;101262.66;4931336;28;6792;-76
2022/07/15 08:02:43;;;;;;;;;;;;;;;23.72;38.99;101266.91;4910297;28;8073;-77
2022/07/15 08:05:09;;;;;;;;;;;;;;;23.71;38.92;101269.53;4959515;28;6811;-77
2022/07/15 08:07:35;;;;;;;;;;;;;;;23.72;38.97;101266.06;4947058;28;7145;-77
2022/07/15 08:10:03;;;;;;;;;;;;;;;23.71;38.90;101269.53;4930615;28;7271;-77
2022/07/15 08:12:29;;;;;;;;;;;;;;;23.70;38.40;101268.66;4943494;28;7002;-77
2022/07/15 08:14:55;;;;;;;;;;;;;;;23.64;38.64;101265.97;4941745;28;6776;-77
2022/07/15 08:17:22;;;;;;;;;;;;;;;23.83;39.08;101266.13;4954194;28;6781;-77
2022/07/15 08:19:47;;;;;;;;;;;;;;;24.38;39.45;101269.94;4912580;28;7228;-77
2022/07/15 08:22:14;;;;;;;;;;;;;;;25.09;38.15;101258.81;4949172;28;6804;-77
2022/07/15 08:24:40;;;;;;;;;;;;;;;25.82;36.94;101261.44;4946042;28;7902;-77
2022/07/15 08:27:06;;;;;;;;;;;;;;;26.18;35.92;101269.22;4958221;28;6983;-78
2022/07/15 08:29:31;;;;;;;;;;;;;;;26.23;35.71;101275.38;4943845;28;6959;-77
2022/07/15 08:31:57;;;;;;;;;;;;;;;26.15;35.32;101277.13;4956444;28;6787;-77
2022/07/15 08:34:23;;;;;;;;;;;;;;;26.14;35.60;101267.50;4940970;28;7579;-77
2022/07/15 08:36:48;;;;;;;;;;;;;;;26.38;34.66;101274.47;4942360;28;7171;-77
2022/07/15 08:39:15;;;;;;;;;;;;;;;26.55;33.78;101277.00;4928175;28;7107;-77
2022/07/15 08:41:41;;;;;;;;;;;;;;;26.82;33.37;101266.34;4952090;28;7198;-77
2022/07/15 08:44:07;;;;;;;;;;;;;;;26.85;32.83;101264.56;4959736;28;7000;-77
2022/07/15 08:46:35;;;;;;;;;;;;;;;26.78;33.10;101257.59;4915036;28;8153;-77
2022/07/15 08:49:14;;;;;;;;;;;;;;;27.06;33.11;101269.75;4930237;28;6780;-77
2022/07/15 08:51:46;;;;;;;;;;;;;;;27.61;33.02;101271.06;4910049;28;7045;-77
2022/07/15 08:54:14;;;;;;;;;;;;;;;28.35;33.27;101256.22;4926308;28;6979;-77
2022/07/15 08:56:43;;;;;;;;;;;;;;;29.12;31.26;101250.78;4929400;28;7180;-78
2022/07/15 08:59:08;;;;;;;;;;;;;;;29.31;29.82;101261.91;4912605;28;7191;-78
2022/07/15 09:01:42;;;;;;;;;;;;;;;29.20;29.43;101262.06;4910557;28;7205;-77
2022/07/15 09:04:08;;;;;;;;;;;;;;;29.28;30.04;101259.31;4956633;28;6962;-77
2022/07/15 09:06:44;;;;;;;;;;;;;;;29.71;29.77;101257.69;4955711;28;7011;-78
2022/07/15 09:09:30;;;;;;;;;;;;;;;30.30;28.80;101248.63;4929140;28;7044;-78
2022/07/15 09:12:09;;;;;;;;;;;;;;;30.62;27.73;101249.72;4940173;28;7255;-78
2022/07/15 09:14:41;;;;;;;;;;;;;;;30.89;27.26;101250.00;4926454;28;6820;-78
2022/07/15 09:17:10;;;;;;;;;;;;;;;31.47;27.71;101250.38;4953717;28;6816;-78
2022/07/15 09:19:57;;;;;;;;;;;;;;;32.31;26.96;101243.66;4936388;28;6808;-78
2022/07/15 09:22:24;;;;;;;;;;;;;;;33.13;25.79;101231.38;4933807;28;6982;-78
2022/07/15 09:25:07;;;;;;;;;;;;;;;33.69;24.89;101234.81;4926633;28;6989;-79
2022/07/15 09:27:37;;;;;;;;;;;;;;;34.15;24.31;101232.28;4924784;28;6997;-78
2022/07/15 09:36:27;;;;;;;;;;;;;;;35.61;22.94;101226.34;4933888;28;7229;-78
2022/07/15 09:39:04;;;;;;;;;;;;;;;35.94;22.31;101227.56;4928927;28;8366;-78
2022/07/15 09:41:37;;;;;;;;;;;;;;;36.34;22.10;101220.38;4929580;29;6796;-78
2022/07/15 09:44:14;;;;;;;;;;;;;;;36.77;21.70;101220.09;4927635;28;7008;-78
2022/07/15 09:46:51;;;;;;;;;;;;;;;37.09;20.47;101224.78;4941368;28;6956;-78
2022/07/15 09:49:22;;;;;;;;;;;;;;;37.18;20.06;101221.63;4940648;28;7288;-78
2022/07/15 09:51:56;;;;;;;;;;;;;;;37.06;19.83;101219.56;4943012;28;7194;-79
2022/07/15 09:54:29;;;;;;;;;;;;;;;36.58;19.12;101222.78;4928669;29;7277;-78
2022/07/15 09:56:55;;;;;;;;;;;;;;;35.70;19.91;101225.06;4941187;28;7193;-78
2022/07/15 09:59:20;;;;;;;;;;;;;;;35.20;20.62;101227.22;4945541;28;7265;-78
2022/07/15 10:01:47;;;;;;;;;;;;;;;34.88;20.82;101229.41;4950784;28;7194;-78
2022/07/15 10:04:17;;;;;;;;;;;;;;;34.38;21.07;101228.69;4941792;28;7274;-78
2022/07/15 10:06:44;;;;;;;;;;;;;;;33.82;21.18;101228.13;4929772;29;6792;-78
2022/07/15 10:09:10;;;;;;;;;;;;;;;33.32;21.29;101226.31;4944381;28;6996;-78
2022/07/15 10:11:44;;;;;;;;;;;;;;;33.29;21.62;101226.44;4944070;28;7064;-78
2022/07/15 10:14:21;;;;;;;;;;;;;;;33.68;21.86;101225.09;4932309;29;6876;-78
2022/07/15 10:17:43;;;;;;;;;;;;;;;33.99;21.64;101222.19;4941631;28;7390;-79
2022/07/15 10:20:24;;;;;;;;;;;;;;;34.21;21.46;101216.94;4943187;28;7270;-78
2022/07/15 10:23:03;;;;;;;;;;;;;;;34.58;21.58;101219.94;4939877;28;7196;-78
2022/07/15 10:25:55;;;;;;;;;;;;;;;34.53;20.90;101221.94;4925268;28;7016;-78
2022/07/15 10:28:54;;;;;;;;;;;;;;;34.07;21.00;101219.25;4932664;29;7703;-78
2022/07/15 10:31:26;;;;;;;;;;;;;;;33.25;21.63;101223.03;4928129;28;7001;-78
2022/07/15 10:34:07;;;;;;;;;;;;;;;32.32;22.16;101218.88;4946657;28;6974;-78
2022/07/15 10:36:47;;;;;;;;;;;;;;;31.45;22.86;101232.75;4950306;28;6879;-78
2022/07/15 10:39:18;;;;;;;;;;;;;;;31.04;22.90;101227.56;4943372;28;6780;-78
2022/07/15 10:41:59;;;;;;;;;;;;;;;31.15;23.23;101223.81;4930101;28;7241;-78
2022/07/15 10:44:47;;;;;;;;;;;;;;;31.67;22.97;101229.50;4943758;28;6800;-78
2022/07/15 10:47:12;;;;;;;;;;;;;;;32.50;22.86;101211.25;4927003;28;7163;-78
2022/07/15 10:49:39;;;;;;;;;;;;;;;33.21;21.67;101208.09;4943306;28;7195;-77
2022/07/15 10:52:21;;;;;;;;;;;;;;;33.59;21.64;101205.91;4949755;28;6832;-78
2022/07/15 10:54:56;;;;;;;;;;;;;;;33.65;20.73;101197.72;4939226;28;6796;-78
2022/07/15 10:57:41;;;;;;;;;;;;;;;33.45;21.10;101194.91;4934780;28;9185;-77
2022/07/15 11:00:33;;;;;;;;;;;;;;;33.18;21.46;101202.91;4937237;28;6957;-77
2022/07/15 11:03:13;;;;;;;;;;;;;;;32.40;21.53;101203.63;4907916;28;12816;-77
2022/07/15 11:05:48;;;;;;;;;;;;;;;31.77;21.94;101208.94;4932872;28;6812;-77
2022/07/15 11:08:42;;;;;;;;;;;;;;;31.71;22.35;101202.03;4934473;28;7009;-77
2022/07/15 11:11:13;;;;;;;;;;;;;;;31.99;21.79;101184.50;4928302;28;7221;-78
2022/07/15 11:13:46;;;;;;;;;;;;;;;32.52;22.02;101177.63;4928077;28;7001;-77
2022/07/15 11:16:15;;;;;;;;;;;;;;;33.19;21.63;101183.41;4941398;28;7180;-77
2022/07/15 11:19:10;;;;;;;;;;;;;;;33.58;20.99;101174.94;4929475;28;6800;-77
2022/07/15 11:21:37;;;;;;;;;;;;;;;33.75;21.04;101176.13;4917983;28;6997;-77
2022/07/15 11:24:02;;;;;;;;;;;;;;;34.10;21.18;101186.34;4946350;28;6820;-76
2022/07/15 11:26:48;;;;;;;;;;;;;;;34.35;20.89;101172.94;4933305;28;6780;-78
2022/07/15 11:29:13;;;;;;;;;;;;;;;34.39;20.11;101177.25;4952132;28;7157;-77
2022/07/15 11:31:40;;;;;;;;;;;;;;;34.40;20.21;101165.66;4922313;28;6835;-77
2022/07/15 11:34:06;;;;;;;;;;;;;;;34.48;20.18;101166.22;4925914;28;6935;-78
2022/07/15 11:36:31;;;;;;;;;;;;;;;34.42;20.37;101171.78;4937902;28;7054;-78
2022/07/15 11:38:58;;;;;;;;;;;;;;;33.79;20.66;101170.63;4958424;28;6792;-78
2022/07/15 11:44:29;;;;;;;;;;;;;;;33.84;21.29;101167.78;4943797;28;6800;-78
2022/07/15 11:46:57;;;;;;;;;;;;;;;34.38;20.83;101159.50;4923174;28;6888;-78
2022/07/15 11:49:35;;;;;;;;;;;;;;;34.95;20.10;101156.31;4925699;28;6805;-82
2022/07/15 11:52:04;;;;;;;;;;;;;;;35.41;20.21;101157.91;4949511;28;7233;-82
2022/07/15 11:54:31;;;;;;;;;;;;;;;35.69;20.15;101149.56;4963737;28;6787;-82
2022/07/15 11:57:05;;;;;;;;;;;;;;;35.52;18.94;101158.28;4927510;28;7115;-82
2022/07/15 11:59:32;;;;;;;;;;;;;;;35.27;19.44;101153.22;4926740;28;8470;-81
2022/07/15 12:02:09;;;;;;;;;;;;;;;35.03;19.81;101148.00;4955543;28;6998;-81
2022/07/15 12:04:36;;;;;;;;;;;;;;;35.04;19.52;101158.63;4925611;28;8411;-81
2022/07/15 12:07:03;;;;;;;;;;;;;;;35.36;19.62;101157.28;4967531;28;7332;-81
2022/07/15 12:09:47;;;;;;;;;;;;;;;35.69;18.87;101146.91;4934716;28;6792;-81
2022/07/15 12:12:15;;;;;;;;;;;;;;;35.96;18.79;101145.69;4951380;28;8028;-82
2022/07/15 12:14:45;;;;;;;;;;;;;;;36.05;18.44;101142.56;4957169;28;6995;-81
2022/07/15 12:17:10;;;;;;;;;;;;;;;35.65;18.00;101147.97;4941771;28;6820;-81
2022/07/15 12:19:37;;;;;;;;;;;;;;;34.67;18.78;101146.00;4955005;28;7275;-81
2022/07/15 12:22:10;;;;;;;;;;;;;;;33.69;19.44;101155.06;4924331;28;8417;-81
2022/07/15 12:24:51;;;;;;;;;;;;;;;32.85;19.96;101158.84;4941494;28;7328;-81
2022/07/15 12:27:34;;;;;;;;;;;;;;;32.09;20.55;101148.84;4956227;28;6812;-81
2022/07/15 12:30:04;;;;;;;;;;;;;;;31.89;21.54;101162.72;4940301;28;7063;-81
2022/07/15 12:32:31;;;;;;;;;;;;;;;32.13;21.45;101150.50;4938167;28;6998;-81
2022/07/15 12:35:02;;;;;;;;;;;;;;;32.30;21.62;101151.72;4963249;28;7219;-81
2022/07/15 12:37:48;;;;;;;;;;;;;;;31.94;21.39;101155.47;4949778;28;7243;-81
2022/07/15 12:40:23;;;;;;;;;;;;;;;31.40;21.87;101152.56;4963612;28;6972;-81
2022/07/15 12:42:52;;;;;;;;;;;;;;;31.04;22.10;101155.25;4965724;28;7294;-81
2022/07/15 12:45:25;;;;;;;;;;;;;;;31.28;22.52;101151.13;4954737;28;8481;-81
2022/07/15 12:48:13;;;;;;;;;;;;;;;31.61;22.27;101158.19;4940022;28;7110;-81
2022/07/15 12:50:50;;;;;;;;;;;;;;;31.96;22.85;101153.63;4952756;28;7149;-81
2022/07/15 12:53:19;;;;;;;;;;;;;;;32.04;22.09;101149.91;4934112;28;7258;-81
2022/07/15 12:55:49;;;;;;;;;;;;;;;31.67;21.27;101160.63;4948445;28;7262;-81
2022/07/15 12:58:22;;;;;;;;;;;;;;;31.09;22.35;101152.50;4954644;28;8906;-81
2022/07/15 13:00:48;;;;;;;;;;;;;;;30.99;22.15;101163.31;4948092;28;7141;-83
2022/07/15 13:03:17;;;;;;;;;;;;;;;31.23;22.36;101152.13;4957659;28;8419;-81
2022/07/15 13:05:49;;;;;;;;;;;;;;;31.55;22.42;101153.94;4945066;28;8546;-81
2022/07/15 13:08:21;;;;;;;;;;;;;;;31.95;22.16;101143.97;4963440;28;7239;-82
2022/07/15 13:10:51;;;;;;;;;;;;;;;32.42;22.17;101139.91;4934767;28;6876;-81
2022/07/15 13:13:20;;;;;;;;;;;;;;;32.95;22.48;101147.03;4949228;28;7318;-81
2022/07/15 13:15:47;;;;;;;;;;;;;;;33.47;21.73;101142.59;4929396;28;7354;-79